Terminal Aerodrome Forecast
Issued by NWS Quad Cities IA IL

Home | Current Version | Previous Version | Text Only | Print | Product List | Glossary On
Versions: 1 2 3 4 5 6 7 8 9 10 11 12 13 14 15 16 17 18 19 20 21 22
000
FTUS43 KDVN 190500
TAFDBQ
TAF
KDBQ 190520Z 1906/2006 22005KT P6SM VCTS BKN080CB
      TEMPO 1907/1908 5SM -TSRA BR BKN050CB
     FM191000 23004KT 3SM BR BKN150
      TEMPO 1911/1913 1 1/2SM BR SCT003
     FM191400 24006KT P6SM BKN250
     FM191700 28011KT P6SM BKN035
     FM200000 28005KT P6SM SCT050
      AMD NOT SKED=

USA.gov is the U.S. government's official web portal to all federal, state and local government web resources and services.